createdAt,value
2019-03-27T00:01:05.346Z,30.70
2019-03-27T00:06:12.394Z,30.80
2019-03-27T00:11:19.845Z,30.90
2019-03-27T00:16:27.397Z,30.90
2019-03-27T00:21:36.143Z,31.00
2019-03-27T00:26:43.211Z,31.00
2019-03-27T00:31:50.033Z,31.10
2019-03-27T00:36:56.950Z,31.20
2019-03-27T00:42:04.197Z,31.30
2019-03-27T00:47:11.239Z,31.30
2019-03-27T00:52:18.234Z,31.40
2019-03-27T00:57:26.172Z,31.40
2019-03-27T01:02:34.379Z,31.40
2019-03-27T01:07:41.531Z,31.50
2019-03-27T01:12:49.269Z,31.50
2019-03-27T01:17:56.752Z,31.60
2019-03-27T01:23:05.086Z,31.60
2019-03-27T01:28:21.254Z,31.70
2019-03-27T01:33:32.522Z,31.70
2019-03-27T01:38:40.429Z,31.50
2019-03-27T01:43:48.113Z,31.50
2019-03-27T01:48:55.146Z,31.60
2019-03-27T01:54:06.072Z,31.70
2019-03-27T01:59:13.145Z,31.80
2019-03-27T02:04:20.503Z,31.90
2019-03-27T02:09:30.020Z,32.10
2019-03-27T02:14:38.760Z,32.20
2019-03-27T02:19:46.756Z,32.50
2019-03-27T02:24:55.014Z,32.60
2019-03-27T02:30:03.124Z,32.70
2019-03-27T02:35:11.652Z,32.70
2019-03-27T02:40:18.704Z,32.50
2019-03-27T02:45:26.634Z,32.80
2019-03-27T02:50:35.804Z,32.80
2019-03-27T02:55:44.462Z,32.90
2019-03-27T03:00:52.609Z,33.00
2019-03-27T03:06:02.172Z,33.20
2019-03-27T03:11:14.172Z,33.30
2019-03-27T03:16:22.592Z,33.50
2019-03-27T03:21:33.817Z,33.70
2019-03-27T03:26:41.613Z,33.80
2019-03-27T03:31:48.624Z,33.90
2019-03-27T03:36:57.403Z,34.00
2019-03-27T03:42:06.526Z,34.20
2019-03-27T03:47:15.269Z,34.30
2019-03-27T03:52:24.560Z,34.10
2019-03-27T03:57:33.044Z,34.10
2019-03-27T04:02:40.633Z,34.30
2019-03-27T04:07:48.550Z,34.60
2019-03-27T04:12:56.068Z,34.60
2019-03-27T04:18:04.327Z,34.90
2019-03-27T04:23:11.401Z,34.80
2019-03-27T04:28:19.891Z,35.00
2019-03-27T04:38:43.701Z,35.10
2019-03-27T04:43:52.099Z,35.40
2019-03-27T04:49:01.128Z,35.50
2019-03-27T04:54:09.542Z,35.70
2019-03-27T04:59:19.522Z,35.80
2019-03-27T05:04:27.035Z,36.00
2019-03-27T05:09:45.337Z,36.10
2019-03-27T05:14:53.255Z,36.00
2019-03-27T05:20:20.952Z,36.20
2019-03-27T05:25:29.692Z,36.40
2019-03-27T05:30:38.177Z,36.60
2019-03-27T05:35:45.231Z,36.70
2019-03-27T05:40:53.233Z,36.90
2019-03-27T05:46:00.700Z,37.00
2019-03-27T05:51:09.191Z,37.00
2019-03-27T05:56:16.639Z,36.90
2019-03-27T06:01:24.311Z,37.30
2019-03-27T06:06:31.129Z,37.10
2019-03-27T06:11:39.525Z,37.00
2019-03-27T06:16:47.427Z,37.40
2019-03-27T06:21:55.423Z,37.70
2019-03-27T06:27:03.366Z,37.70
2019-03-27T06:32:11.469Z,37.80
2019-03-27T06:37:18.678Z,37.90
2019-03-27T06:42:26.929Z,38.10
2019-03-27T06:47:34.728Z,38.20
2019-03-27T06:52:41.836Z,38.20
2019-03-27T06:57:48.808Z,38.30
2019-03-27T07:02:55.832Z,38.30
2019-03-27T07:08:03.438Z,38.40
2019-03-27T07:13:10.529Z,38.40
2019-03-27T07:18:18.551Z,38.40
2019-03-27T07:23:25.510Z,38.50
2019-03-27T07:28:32.877Z,38.60
2019-03-27T07:33:41.510Z,38.70
2019-03-27T07:38:51.403Z,38.60
2019-03-27T07:43:57.916Z,38.60
2019-03-27T07:49:05.238Z,38.70
2019-03-27T07:54:13.057Z,38.80
2019-03-27T07:59:20.177Z,38.80
2019-03-27T08:04:27.394Z,38.80
2019-03-27T08:09:34.353Z,38.80
2019-03-27T08:14:42.696Z,38.50
2019-03-27T08:19:49.583Z,38.80
2019-03-27T08:24:56.465Z,38.90
2019-03-27T08:30:04.565Z,38.80
2019-03-27T08:35:11.988Z,38.60
2019-03-27T08:40:19.022Z,38.30
2019-03-27T08:45:26.906Z,38.60
2019-03-27T08:50:37.096Z,38.70
2019-03-27T08:55:44.179Z,38.70
2019-03-27T09:00:53.704Z,38.60
2019-03-27T09:06:00.761Z,38.60
2019-03-27T09:11:08.508Z,39.00
2019-03-27T09:16:15.561Z,39.00
2019-03-27T09:21:23.324Z,38.90
2019-03-27T09:26:30.893Z,39.00
2019-03-27T09:31:44.578Z,39.00
2019-03-27T09:36:47.906Z,39.00
2019-03-27T09:41:55.689Z,38.90
2019-03-27T09:47:20.548Z,38.80
2019-03-27T09:52:29.072Z,38.80
2019-03-27T09:57:36.619Z,38.80
2019-03-27T10:02:44.030Z,38.80
2019-03-27T10:07:51.757Z,38.30
2019-03-27T10:12:58.655Z,38.00
2019-03-27T10:18:06.269Z,37.70
2019-03-27T10:23:13.038Z,37.80
2019-03-27T10:28:20.484Z,37.70
2019-03-27T10:33:27.783Z,37.60
2019-03-27T10:38:35.035Z,37.40
2019-03-27T10:43:42.965Z,37.50
2019-03-27T10:48:52.954Z,37.30
2019-03-27T10:53:59.446Z,37.30
2019-03-27T10:59:06.482Z,37.40
2019-03-27T11:04:14.180Z,37.40
2019-03-27T11:09:21.851Z,37.30
2019-03-27T11:14:37.888Z,37.10
2019-03-27T11:19:36.991Z,35.30
2019-03-27T11:24:44.442Z,34.70
2019-03-27T11:29:51.824Z,34.00
2019-03-27T11:34:59.742Z,33.40
2019-03-27T11:40:07.803Z,33.30
2019-03-27T11:45:15.592Z,33.10
2019-03-27T11:50:23.808Z,32.80
2019-03-27T11:55:33.791Z,32.00
2019-03-27T12:00:53.980Z,32.00
2019-03-27T12:05:49.976Z,31.80
2019-03-27T12:10:57.119Z,32.20
2019-03-27T12:16:04.399Z,31.70
2019-03-27T12:21:11.376Z,31.70
2019-03-27T12:26:23.417Z,31.90
2019-03-27T12:31:30.457Z,32.10
2019-03-27T12:36:37.720Z,31.70
2019-03-27T12:41:44.526Z,31.30
2019-03-27T12:46:52.048Z,31.60
2019-03-27T12:51:59.214Z,31.60
2019-03-27T12:57:06.466Z,30.80
2019-03-27T13:02:13.769Z,30.50
2019-03-27T13:07:20.859Z,30.90
2019-03-27T13:12:41.958Z,30.80
2019-03-27T13:17:50.498Z,31.10
2019-03-27T13:22:58.749Z,31.00
2019-03-27T13:28:07.307Z,31.40
2019-03-27T13:33:14.504Z,31.50
2019-03-27T13:38:21.543Z,31.00
2019-03-27T13:43:28.698Z,30.60
2019-03-27T13:54:04.682Z,30.70
2019-03-27T13:59:11.847Z,30.30
2019-03-27T14:04:18.956Z,30.10
2019-03-27T14:09:26.200Z,30.10
2019-03-27T14:14:33.524Z,31.00
2019-03-27T14:19:40.706Z,31.30
2019-03-27T14:24:47.892Z,31.30
2019-03-27T14:29:54.935Z,31.10
2019-03-27T14:35:02.075Z,30.80
2019-03-27T14:40:09.943Z,30.60
2019-03-27T14:45:17.590Z,30.70
2019-03-27T14:50:24.767Z,30.70
2019-03-27T14:55:31.887Z,29.60
2019-03-27T15:00:39.590Z,30.00
2019-03-27T15:05:47.190Z,30.50
2019-03-27T15:10:54.668Z,30.30
2019-03-27T15:16:02.425Z,30.50
2019-03-27T15:21:09.650Z,30.60
2019-03-27T15:26:16.638Z,30.80
2019-03-27T15:31:23.808Z,30.80
2019-03-27T15:36:30.994Z,30.80
2019-03-27T15:41:38.063Z,30.70
2019-03-27T15:46:45.647Z,30.70
2019-03-27T15:51:52.888Z,30.80
2019-03-27T15:57:00.047Z,30.40
2019-03-27T16:02:08.584Z,30.70
2019-03-27T16:07:16.130Z,30.70
2019-03-27T16:12:23.356Z,30.70
2019-03-27T16:17:30.540Z,30.70
2019-03-27T16:22:49.934Z,30.70
2019-03-27T16:27:46.467Z,30.60
2019-03-27T16:32:53.717Z,30.60
2019-03-27T16:38:01.970Z,30.60
2019-03-27T16:43:09.264Z,30.50
2019-03-27T16:48:16.575Z,30.60
2019-03-27T16:53:23.657Z,30.50
2019-03-27T16:58:31.018Z,30.50
2019-03-27T17:03:38.519Z,30.20
2019-03-27T17:08:45.471Z,30.00
2019-03-27T17:13:52.868Z,30.00
2019-03-27T17:19:00.478Z,30.20
2019-03-27T17:24:08.041Z,30.20
2019-03-27T17:29:15.246Z,30.20
2019-03-27T17:34:22.389Z,30.10
2019-03-27T17:39:29.614Z,30.10
2019-03-27T17:44:36.679Z,30.20
2019-03-27T17:49:43.815Z,30.10
2019-03-27T17:54:52.418Z,30.10
2019-03-27T17:59:59.754Z,30.10
2019-03-27T18:05:08.849Z,29.90
2019-03-27T18:10:16.571Z,30.00
2019-03-27T18:15:23.849Z,29.90
2019-03-27T18:20:31.569Z,29.90
2019-03-27T18:25:38.901Z,29.90
2019-03-27T18:30:48.955Z,29.90
2019-03-27T18:35:56.176Z,29.90
2019-03-27T18:41:03.297Z,29.90
2019-03-27T18:46:10.603Z,29.80
2019-03-27T18:51:19.094Z,29.80
2019-03-27T18:56:26.589Z,29.70
2019-03-27T19:01:33.675Z,29.60
2019-03-27T19:06:40.822Z,29.60
2019-03-27T19:11:48.074Z,29.60
2019-03-27T19:16:55.375Z,29.70
2019-03-27T19:22:02.979Z,29.70
2019-03-27T19:27:10.368Z,29.70
2019-03-27T19:32:17.446Z,29.50
2019-03-27T19:37:24.662Z,29.60
2019-03-27T19:42:31.903Z,29.60
2019-03-27T19:47:39.098Z,29.50
2019-03-27T19:52:46.196Z,29.50
2019-03-27T19:57:53.500Z,29.50
2019-03-27T20:03:00.829Z,29.50
2019-03-27T20:08:08.631Z,29.50
2019-03-27T20:13:15.763Z,29.50
2019-03-27T20:18:23.325Z,29.50
2019-03-27T20:23:30.316Z,29.40
2019-03-27T20:28:37.452Z,29.40
2019-03-27T20:33:44.402Z,29.40
2019-03-27T20:38:52.640Z,29.50
2019-03-27T20:44:00.176Z,29.40
2019-03-27T20:49:07.334Z,29.40
2019-03-27T20:54:14.856Z,29.40
2019-03-27T20:59:22.436Z,29.30
2019-03-27T21:04:29.849Z,29.30
2019-03-27T21:09:36.971Z,29.30
2019-03-27T21:14:44.498Z,29.30
2019-03-27T21:19:51.598Z,29.10
2019-03-27T21:25:08.590Z,28.60
2019-03-27T21:30:10.529Z,28.80
2019-03-27T21:35:18.464Z,28.90
2019-03-27T21:40:25.520Z,28.90
2019-03-27T21:45:33.239Z,28.90
2019-03-27T21:50:40.444Z,28.90
2019-03-27T21:55:47.566Z,28.80
2019-03-27T22:00:54.806Z,28.60
2019-03-27T22:06:01.800Z,28.60
2019-03-27T22:11:09.083Z,28.30
2019-03-27T22:16:16.563Z,28.70
2019-03-27T22:21:24.904Z,28.70
2019-03-27T22:26:33.861Z,28.60
2019-03-27T22:31:41.036Z,28.70
2019-03-27T22:36:48.665Z,28.30
2019-03-27T22:41:55.640Z,28.30
2019-03-27T22:47:02.966Z,28.20
2019-03-27T22:52:10.020Z,28.20
2019-03-27T22:57:18.385Z,28.30
2019-03-27T23:02:25.461Z,28.40
2019-03-27T23:07:32.671Z,28.40
2019-03-27T23:12:39.606Z,28.20
2019-03-27T23:17:47.195Z,28.20
2019-03-27T23:22:54.966Z,28.40
2019-03-27T23:28:02.559Z,28.20
2019-03-27T23:33:09.392Z,28.10
2019-03-27T23:38:16.930Z,27.80
2019-03-27T23:43:24.597Z,27.60
2019-03-27T23:48:31.886Z,27.70
2019-03-27T23:53:39.226Z,27.60
2019-03-27T23:58:46.341Z,28.00
